Observations for BOURNEMOUTH AIRPORT, United Kingdom (EGHH)

EGHH 191950Z 31001KT 9999 MIFG NSC 06/06 Q1004  
EGHH 191920Z 31001KT CAVOK 06/06 Q1004  
EGHH 191820Z 17002KT CAVOK 10/08 Q1003  
EGHH 191750Z 02001KT 9999 FEW041 09/07 Q1003
EGHH 191720Z 26003KT 9999 FEW042 10/07 Q1003
EGHH 191650Z VRB03KT 9999 FEW033 SCT048 11/07 Q1003 
EGHH 191620Z 29005KT 250V020 9999 FEW033 12/08 Q1002
EGHH 191550Z 32006KT 290V360 9999 SCT033 12/07 Q1002
EGHH 191520Z 29006KT 260V350 9999 SCT033 14/07 Q1002
EGHH 191450Z 27006KT 9999 FEW029 SCT033 13/08 Q1002 
EGHH 191420Z 28007KT 9999 FEW029 SCT033 14/08 Q1002 
EGHH 191350Z 30007KT 9999 FEW029 SCT033 14/08 Q1001 
EGHH 191320Z 26010KT 9999 FEW029 SCT035 15/08 Q1001 
EGHH 191250Z 26010KT 9999 FEW029 SCT035 15/07 Q1001 
EGHH 191220Z 28012KT 9999 SCT032 SCT039 16/08 Q1001 
EGHH 191150Z 25010KT 9999 FEW025 SCT029 15/09 Q1001 
EGHH 191120Z 25012KT 9999 SCT025 15/08 Q1001
EGHH 191050Z 26012KT 9999 SCT025 13/07 Q1001
EGHH 191020Z 25010KT 9999 FEW024 14/09 Q1000
EGHH 190950Z 26010KT 9999 FEW020 14/10 Q1000
EGHH 190920Z 25007KT 9999 FEW020 FEW035CB 13/10 Q1000   
EGHH 190850Z 28008KT 9999 FEW020 FEW035CB 12/10 Q1000   
EGHH 190820Z 29003KT 9999 FEW035CB 11/10 Q1000  
EGHH 190750Z 24002KT 9999 FEW035CB 09/09 Q1000  
EGHH 190720Z 23003KT 9999 FEW035CB 09/08 Q0999  
EGHH 190650Z 25003KT 9999 FEW035 08/07 Q0999
EGHH 190620Z 25006KT 9999 FEW049 09/08 Q0999
EGHH 190550Z 25001KT 9999 MIFG FEW049 08/07 Q0999   
EGHH 190520Z 28002KT 9999 MIFG FEW049 08/08 Q0999   
EGHH 190450Z 25002KT 9999 FEW049 09/08 Q0999
EGHH 182220Z 25005KT 9999 RA FEW023 BKN049 11/09 Q0999  
EGHH 182120Z 23009KT 9999 FEW025 12/10 Q0999 RERA   
EGHH 182050Z 23010KT 9999 RA FEW025 12/09 Q0999 RERA
EGHH 182020Z 23012KT 9999 FEW024 13/10 Q0999 RERA   
EGHH 181950Z 24014KT 9999 FEW024 13/09 Q0999 RERA   
EGHH 181920Z 24013KT 9999 SCT024 BKN048 13/10 Q0999 RERA